createdAt,value
2018-08-16T00:00:31.301Z,4.47
2018-08-16T00:03:06.173Z,4.87
2018-08-16T00:05:41.108Z,4.70
2018-08-16T00:08:15.529Z,5.60
2018-08-16T00:10:50.186Z,4.63
2018-08-16T00:13:25.116Z,5.40
2018-08-16T00:15:59.872Z,4.30
2018-08-16T00:18:34.620Z,5.17
2018-08-16T00:21:09.405Z,4.27
2018-08-16T00:23:44.116Z,4.87
2018-08-16T00:26:18.780Z,4.50
2018-08-16T00:28:53.704Z,4.30
2018-08-16T00:31:28.113Z,4.30
2018-08-16T00:34:02.748Z,4.53
2018-08-16T00:36:37.553Z,4.47
2018-08-16T00:39:12.285Z,4.27
2018-08-16T00:41:47.071Z,4.60
2018-08-16T00:44:21.672Z,4.20
2018-08-16T00:46:56.361Z,5.80
2018-08-16T00:49:31.128Z,4.73
2018-08-16T00:52:06.165Z,4.20
2018-08-16T00:54:40.588Z,5.00
2018-08-16T00:57:15.553Z,5.00
2018-08-16T00:59:50.093Z,5.20
2018-08-16T01:02:25.029Z,4.20
2018-08-16T01:04:59.905Z,5.13
2018-08-16T01:07:34.632Z,4.30
2018-08-16T01:10:11.565Z,4.67
2018-08-16T01:12:46.232Z,4.43
2018-08-16T01:15:21.147Z,4.70
2018-08-16T01:17:55.883Z,5.07
2018-08-16T01:20:30.599Z,4.40
2018-08-16T01:23:05.492Z,5.67
2018-08-16T01:25:40.284Z,5.13
2018-08-16T01:28:15.078Z,4.83
2018-08-16T01:30:50.095Z,4.77
2018-08-16T01:33:24.661Z,4.47
2018-08-16T01:35:59.282Z,4.90
2018-08-16T01:38:33.909Z,5.23
2018-08-16T01:41:08.640Z,5.07
2018-08-16T01:43:43.388Z,4.63
2018-08-16T01:46:18.098Z,4.60
2018-08-16T01:48:52.816Z,4.50
2018-08-16T01:51:27.515Z,5.20
2018-08-16T01:54:01.979Z,4.20
2018-08-16T01:56:36.864Z,4.93
2018-08-16T01:59:11.304Z,4.80
2018-08-16T02:01:46.500Z,4.30
2018-08-16T02:04:20.860Z,3.93
2018-08-16T02:06:55.724Z,4.87
2018-08-16T02:09:30.315Z,4.70
2018-08-16T02:12:05.472Z,4.53
2018-08-16T02:14:39.588Z,4.60
2018-08-16T02:17:14.289Z,5.07
2018-08-16T02:19:49.324Z,4.17
2018-08-16T02:22:23.799Z,5.23
2018-08-16T02:24:58.584Z,4.23
2018-08-16T02:27:33.409Z,4.00
2018-08-16T02:30:08.860Z,4.10
2018-08-16T02:32:43.582Z,4.90
2018-08-16T02:35:18.128Z,4.80
2018-08-16T02:37:53.008Z,4.80
2018-08-16T02:40:27.894Z,4.60
2018-08-16T02:43:02.556Z,4.10
2018-08-16T02:45:37.298Z,4.90
2018-08-16T02:48:11.925Z,4.40
2018-08-16T02:50:46.634Z,5.50
2018-08-16T02:53:21.620Z,4.77
2018-08-16T02:55:56.137Z,4.90
2018-08-16T02:58:31.048Z,4.17
2018-08-16T03:01:05.707Z,4.13
2018-08-16T03:03:40.509Z,4.40
2018-08-16T03:06:15.534Z,4.30
2018-08-16T03:08:49.876Z,5.70
2018-08-16T03:11:24.493Z,4.27
2018-08-16T03:13:59.498Z,4.50
2018-08-16T03:16:33.915Z,4.20
2018-08-16T03:19:08.746Z,4.70
2018-08-16T03:21:43.406Z,4.27
2018-08-16T03:24:18.142Z,5.10
2018-08-16T03:26:52.998Z,5.50
2018-08-16T03:29:27.752Z,4.50
2018-08-16T03:32:02.473Z,4.13
2018-08-16T03:34:37.221Z,4.37
2018-08-16T03:37:12.119Z,4.30
2018-08-16T03:39:47.127Z,5.60
2018-08-16T03:42:21.716Z,4.73
2018-08-16T03:44:56.584Z,4.30
2018-08-16T03:47:31.244Z,3.63
2018-08-16T03:50:07.012Z,4.30
2018-08-16T03:52:43.709Z,4.43
2018-08-16T03:55:19.741Z,4.47
2018-08-16T03:57:53.880Z,5.43
2018-08-16T04:00:28.549Z,4.27
2018-08-16T04:03:03.337Z,4.93
2018-08-16T04:05:37.736Z,3.80
2018-08-16T04:08:12.364Z,5.53
2018-08-16T04:10:46.948Z,4.40
2018-08-16T04:13:21.811Z,5.03
2018-08-16T04:15:56.093Z,4.60
2018-08-16T04:18:30.798Z,4.10
2018-08-16T04:21:05.404Z,4.20
2018-08-16T04:23:40.039Z,3.37
2018-08-16T04:26:14.852Z,4.37
2018-08-16T04:28:49.388Z,4.20
2018-08-16T04:31:24.335Z,3.90
2018-08-16T04:33:59.088Z,4.00
2018-08-16T04:36:33.685Z,4.23
2018-08-16T04:39:09.458Z,3.90
2018-08-16T04:41:44.201Z,3.40
2018-08-16T04:44:19.022Z,3.90
2018-08-16T04:46:54.596Z,4.50
2018-08-16T04:49:29.645Z,3.90
2018-08-16T04:52:04.760Z,4.60
2018-08-16T04:54:39.256Z,4.30
2018-08-16T04:57:13.989Z,3.77
2018-08-16T04:59:48.850Z,4.40
2018-08-16T05:02:23.923Z,4.37
2018-08-16T05:04:58.481Z,3.50
2018-08-16T05:07:33.071Z,4.40
2018-08-16T05:10:09.335Z,4.43
2018-08-16T05:12:43.478Z,3.93
2018-08-16T05:15:18.220Z,4.57
2018-08-16T05:17:52.922Z,3.87
2018-08-16T05:20:27.767Z,5.03
2018-08-16T05:23:02.890Z,3.10
2018-08-16T05:25:37.425Z,3.87
2018-08-16T05:28:12.073Z,4.50
2018-08-16T05:30:46.821Z,3.77
2018-08-16T05:33:21.697Z,4.40
2018-08-16T05:35:56.556Z,4.13
2018-08-16T05:38:31.276Z,4.50
2018-08-16T05:41:06.044Z,3.60
2018-08-16T05:43:40.766Z,3.50
2018-08-16T05:46:15.687Z,3.63
2018-08-16T05:48:50.825Z,3.67
2018-08-16T05:51:25.665Z,3.60
2018-08-16T05:54:00.352Z,3.83
2018-08-16T05:56:35.116Z,3.27
2018-08-16T05:59:09.529Z,3.30
2018-08-16T06:01:44.423Z,2.83
2018-08-16T06:04:19.143Z,2.90
2018-08-16T06:06:53.779Z,2.60
2018-08-16T06:09:28.568Z,2.70
2018-08-16T06:12:03.732Z,2.60
2018-08-16T06:14:38.204Z,2.63
2018-08-16T06:17:13.536Z,3.10
2018-08-16T06:19:47.866Z,2.67
2018-08-16T06:22:22.516Z,2.90
2018-08-16T06:24:57.188Z,2.60
2018-08-16T06:27:31.792Z,2.73
2018-08-16T06:30:11.218Z,2.57
2018-08-16T06:32:46.449Z,2.73
2018-08-16T06:35:20.617Z,2.50
2018-08-16T06:37:55.294Z,2.83
2018-08-16T06:40:29.962Z,2.40
2018-08-16T06:43:04.596Z,2.63
2018-08-16T06:45:39.450Z,2.40
2018-08-16T06:48:14.112Z,2.53
2018-08-16T06:50:49.088Z,2.40
2018-08-16T06:53:23.800Z,2.30
2018-08-16T06:55:58.643Z,1.70
2018-08-16T06:58:33.880Z,2.50
2018-08-16T07:01:08.502Z,2.50
2018-08-16T07:03:42.892Z,1.90
2018-08-16T07:06:17.834Z,2.50
2018-08-16T07:08:52.390Z,2.10
2018-08-16T07:11:27.420Z,2.70
2018-08-16T07:14:01.703Z,1.90
2018-08-16T07:16:36.532Z,2.30
2018-08-16T07:19:11.507Z,2.33
2018-08-16T07:21:46.066Z,2.60
2018-08-16T07:24:20.821Z,3.20
2018-08-16T07:26:55.584Z,2.20
2018-08-16T07:29:30.339Z,2.30
2018-08-16T07:32:05.245Z,2.03
2018-08-16T07:34:39.785Z,1.90
2018-08-16T07:37:14.381Z,1.80
2018-08-16T07:39:48.919Z,2.13
2018-08-16T07:42:23.484Z,2.27
2018-08-16T07:44:58.117Z,2.37
2018-08-16T07:47:32.984Z,2.27
2018-08-16T07:50:09.306Z,2.37
2018-08-16T07:52:44.349Z,3.17
2018-08-16T07:55:19.088Z,1.93
2018-08-16T07:57:53.852Z,2.40
2018-08-16T08:00:28.524Z,2.43
2018-08-16T08:03:03.278Z,2.10
2018-08-16T08:05:37.875Z,2.00
2018-08-16T08:08:12.561Z,2.10
2018-08-16T08:10:47.129Z,2.10
2018-08-16T08:13:21.592Z,2.20
2018-08-16T08:15:56.389Z,1.70
2018-08-16T08:18:31.308Z,2.30
2018-08-16T08:21:05.545Z,2.23
2018-08-16T08:23:40.660Z,2.40
2018-08-16T08:26:15.305Z,2.60
2018-08-16T08:28:50.245Z,2.20
2018-08-16T08:31:24.904Z,2.00
2018-08-16T08:33:59.464Z,2.50
2018-08-16T08:36:51.552Z,2.30
2018-08-16T08:39:26.289Z,2.17
2018-08-16T08:42:00.924Z,2.30
2018-08-16T08:44:35.827Z,2.17
2018-08-16T08:47:10.533Z,1.80
2018-08-16T08:49:45.073Z,1.90
2018-08-16T08:52:19.870Z,1.90
2018-08-16T08:55:11.760Z,2.27
2018-08-16T08:58:03.451Z,2.30
2018-08-16T09:00:38.132Z,2.00
2018-08-16T09:03:12.605Z,2.00
2018-08-16T09:05:47.240Z,2.27
2018-08-16T09:08:21.915Z,2.10
2018-08-16T09:11:18.871Z,2.10
2018-08-16T09:14:10.921Z,2.27
2018-08-16T09:16:45.972Z,1.80
2018-08-16T09:19:20.676Z,1.70
2018-08-16T09:21:55.350Z,1.90
2018-08-16T09:24:29.940Z,2.17
2018-08-16T09:27:05.043Z,2.43
2018-08-16T09:30:26.284Z,2.50
2018-08-16T09:33:18.265Z,2.03
2018-08-16T09:35:52.958Z,2.00
2018-08-16T09:38:27.896Z,2.30
2018-08-16T09:41:02.220Z,1.90
2018-08-16T09:43:37.004Z,2.10
2018-08-16T09:47:03.364Z,2.00
2018-08-16T09:49:44.884Z,2.10
2018-08-16T09:52:19.962Z,2.30
2018-08-16T09:54:54.783Z,2.00
2018-08-16T09:57:29.367Z,2.40
2018-08-16T10:00:04.356Z,2.47
2018-08-16T10:02:38.840Z,2.33
2018-08-16T10:05:13.576Z,1.77
2018-08-16T10:07:48.132Z,1.80
2018-08-16T10:10:22.899Z,2.07
2018-08-16T10:12:57.744Z,2.10
2018-08-16T10:15:32.261Z,1.83
2018-08-16T10:18:07.428Z,2.40
2018-08-16T10:20:41.802Z,2.10
2018-08-16T10:23:16.576Z,1.90
2018-08-16T10:25:51.175Z,2.13
2018-08-16T10:28:26.016Z,1.97
2018-08-16T10:31:00.903Z,2.10
2018-08-16T10:33:35.635Z,1.63
2018-08-16T10:36:10.600Z,2.13
2018-08-16T10:38:45.264Z,2.00
2018-08-16T10:41:19.973Z,2.43
2018-08-16T10:43:54.711Z,2.00
2018-08-16T10:46:29.742Z,1.90
2018-08-16T10:49:04.634Z,2.20
2018-08-16T10:51:39.280Z,2.10
2018-08-16T10:54:14.032Z,2.13
2018-08-16T10:56:48.736Z,2.10
2018-08-16T10:59:23.500Z,2.17
2018-08-16T11:01:58.572Z,2.10
2018-08-16T11:04:32.960Z,2.40
2018-08-16T11:07:07.573Z,1.83
2018-08-16T11:09:42.164Z,2.00
2018-08-16T11:12:16.965Z,2.27
2018-08-16T11:14:51.465Z,2.13
2018-08-16T11:17:26.320Z,2.40
2018-08-16T11:20:00.818Z,2.30
2018-08-16T11:22:35.359Z,2.13
2018-08-16T11:25:09.971Z,1.97
2018-08-16T11:27:44.660Z,2.33
2018-08-16T11:30:19.405Z,2.50
2018-08-16T11:32:54.184Z,2.47
2018-08-16T11:35:28.943Z,2.37
2018-08-16T11:38:03.697Z,4.27
2018-08-16T11:40:38.387Z,2.20
2018-08-16T11:43:13.254Z,2.03
2018-08-16T11:45:48.063Z,2.10
2018-08-16T11:48:23.229Z,2.33
2018-08-16T11:50:57.614Z,2.33
2018-08-16T11:53:32.185Z,2.10
2018-08-16T11:56:07.038Z,2.30
2018-08-16T11:58:41.769Z,2.83
2018-08-16T12:01:16.762Z,2.10
2018-08-16T12:03:51.356Z,2.30
2018-08-16T12:06:29.272Z,2.40
2018-08-16T12:09:07.296Z,2.43
2018-08-16T12:11:41.721Z,2.97
2018-08-16T12:14:16.655Z,2.53
2018-08-16T12:16:51.212Z,2.73
2018-08-16T12:19:26.103Z,2.73
2018-08-16T12:22:00.654Z,2.50
2018-08-16T12:24:34.964Z,2.50
2018-08-16T12:27:09.696Z,2.53
2018-08-16T12:29:44.593Z,2.17
2018-08-16T12:32:18.913Z,2.23
2018-08-16T12:34:53.484Z,2.77
2018-08-16T12:37:28.469Z,2.13
2018-08-16T12:40:03.753Z,2.40
2018-08-16T12:42:38.645Z,2.43
2018-08-16T12:45:13.201Z,2.30
2018-08-16T12:47:48.003Z,2.77
2018-08-16T12:50:22.854Z,2.20
2018-08-16T12:52:57.284Z,2.20
2018-08-16T12:55:31.775Z,2.70
2018-08-16T12:58:06.511Z,2.30
2018-08-16T13:00:41.297Z,2.10
2018-08-16T13:03:16.360Z,1.80
2018-08-16T13:05:50.845Z,2.57
2018-08-16T13:08:25.626Z,2.00
2018-08-16T13:11:00.215Z,2.87
2018-08-16T13:13:34.929Z,2.37
2018-08-16T13:16:09.560Z,1.93
2018-08-16T13:18:44.781Z,2.10
2018-08-16T13:21:18.997Z,2.43
2018-08-16T13:23:53.663Z,2.30
2018-08-16T13:26:28.377Z,2.20
2018-08-16T13:29:02.980Z,2.20
2018-08-16T13:31:37.643Z,2.33
2018-08-16T13:34:12.152Z,2.33
2018-08-16T13:36:46.891Z,2.50
2018-08-16T13:39:21.512Z,1.97
2018-08-16T13:41:56.100Z,2.30
2018-08-16T13:44:30.753Z,2.20
2018-08-16T13:47:05.594Z,2.27
2018-08-16T13:49:40.186Z,2.50
2018-08-16T13:52:15.017Z,2.10
2018-08-16T13:54:49.508Z,2.07
2018-08-16T13:57:24.137Z,2.47
2018-08-16T13:59:58.856Z,1.97
2018-08-16T14:02:33.688Z,2.13
2018-08-16T14:05:08.916Z,1.53
2018-08-16T14:07:43.448Z,2.30
2018-08-16T14:10:18.368Z,2.10
2018-08-16T14:12:53.115Z,2.50
2018-08-16T14:15:27.956Z,1.93
2018-08-16T14:18:02.548Z,2.43
2018-08-16T14:20:37.292Z,2.20
2018-08-16T14:23:11.980Z,1.93
2018-08-16T14:25:46.550Z,1.80
2018-08-16T14:28:21.198Z,2.17
2018-08-16T14:30:56.113Z,2.07
2018-08-16T14:33:30.735Z,2.63
2018-08-16T14:36:05.594Z,2.30
2018-08-16T14:38:40.961Z,2.30
2018-08-16T14:41:14.968Z,1.90
2018-08-16T14:43:49.596Z,2.43
2018-08-16T14:46:24.324Z,2.00
2018-08-16T14:48:58.978Z,2.17
2018-08-16T14:51:33.651Z,1.93
2018-08-16T14:54:08.833Z,1.83
2018-08-16T14:56:43.060Z,1.87
2018-08-16T14:59:17.857Z,1.77
2018-08-16T15:01:52.445Z,2.37
2018-08-16T15:04:27.170Z,2.10
2018-08-16T15:07:01.852Z,2.17
2018-08-16T15:09:36.577Z,1.40
2018-08-16T15:12:11.396Z,2.00
2018-08-16T15:14:46.286Z,2.10
2018-08-16T15:17:21.348Z,1.90
2018-08-16T15:19:55.970Z,2.10
2018-08-16T15:22:31.313Z,2.00
2018-08-16T15:25:05.821Z,2.33
2018-08-16T15:27:40.315Z,1.77
2018-08-16T15:30:15.061Z,1.93
2018-08-16T15:32:49.774Z,2.30
2018-08-16T15:35:24.403Z,2.17
2018-08-16T15:37:59.056Z,2.30
2018-08-16T15:40:33.829Z,2.07
2018-08-16T15:43:08.612Z,2.40
2018-08-16T15:45:43.145Z,2.40
2018-08-16T15:48:18.071Z,2.50
2018-08-16T15:50:52.722Z,2.10
2018-08-16T15:53:27.337Z,2.30
2018-08-16T15:56:02.329Z,2.30
2018-08-16T15:58:36.819Z,2.73
2018-08-16T16:01:11.466Z,2.70
2018-08-16T16:03:46.070Z,2.70
2018-08-16T16:06:20.899Z,2.70
2018-08-16T16:08:55.570Z,2.80
2018-08-16T16:11:30.336Z,1.90
2018-08-16T16:14:05.769Z,2.40
2018-08-16T16:16:39.928Z,1.80
2018-08-16T16:19:14.596Z,2.90
2018-08-16T16:21:49.543Z,2.60
2018-08-16T16:24:23.861Z,2.47
2018-08-16T16:26:58.676Z,2.20
2018-08-16T16:29:33.413Z,2.60
2018-08-16T16:32:15.022Z,3.53
2018-08-16T16:34:49.242Z,2.50
2018-08-16T16:37:23.840Z,3.10
2018-08-16T16:39:58.520Z,3.23
2018-08-16T16:42:33.129Z,2.60
2018-08-16T16:45:08.883Z,2.33
2018-08-16T16:47:43.039Z,2.30
2018-08-16T16:50:17.736Z,2.10
2018-08-16T16:52:52.375Z,2.60
2018-08-16T16:55:27.109Z,2.47
2018-08-16T16:58:01.656Z,2.87
2018-08-16T17:00:36.656Z,2.20
2018-08-16T17:03:11.424Z,2.40
2018-08-16T17:05:46.212Z,2.20
2018-08-16T17:08:20.721Z,2.37
2018-08-16T17:10:55.308Z,2.30
2018-08-16T17:13:30.081Z,2.70
2018-08-16T17:16:04.753Z,3.27
2018-08-16T17:18:40.021Z,3.07
2018-08-16T17:21:14.364Z,2.60
2018-08-16T17:23:49.012Z,3.30
2018-08-16T17:26:23.742Z,3.00
2018-08-16T17:28:58.418Z,2.73
2018-08-16T17:31:33.508Z,2.97
2018-08-16T17:34:07.926Z,2.87
2018-08-16T17:36:42.841Z,2.80
2018-08-16T17:39:17.221Z,2.47
2018-08-16T17:41:51.948Z,3.00
2018-08-16T17:44:26.625Z,3.47
2018-08-16T17:47:01.501Z,2.97
2018-08-16T17:49:36.275Z,2.57
2018-08-16T17:52:11.163Z,2.93
2018-08-16T17:54:45.876Z,2.63
2018-08-16T17:57:20.609Z,2.63
2018-08-16T17:59:55.368Z,3.03
2018-08-16T18:02:30.016Z,2.40
2018-08-16T18:05:04.960Z,2.60
2018-08-16T18:07:39.429Z,2.50
2018-08-16T18:10:14.095Z,2.50
2018-08-16T18:12:49.044Z,2.87
2018-08-16T18:15:23.825Z,2.73
2018-08-16T18:17:58.436Z,3.70
2018-08-16T18:20:33.165Z,4.23
2018-08-16T18:23:08.256Z,3.30
2018-08-16T18:25:42.589Z,3.30
2018-08-16T18:28:17.976Z,3.30
2018-08-16T18:30:52.977Z,3.03
2018-08-16T18:33:29.098Z,3.00
2018-08-16T18:36:03.477Z,2.53
2018-08-16T18:38:41.492Z,3.63
2018-08-16T18:41:15.565Z,3.53
2018-08-16T18:43:50.471Z,3.00
2018-08-16T18:46:24.996Z,2.90
2018-08-16T18:48:59.784Z,3.60
2018-08-16T18:51:34.540Z,3.10
2018-08-16T18:54:09.456Z,3.60
2018-08-16T18:56:44.465Z,3.20
2018-08-16T18:59:19.097Z,2.60
2018-08-16T19:01:53.964Z,3.43
2018-08-16T19:04:28.824Z,3.33
2018-08-16T19:07:03.662Z,2.90
2018-08-16T19:09:38.404Z,3.70
2018-08-16T19:12:13.069Z,4.17
2018-08-16T19:14:47.905Z,3.50
2018-08-16T19:17:22.572Z,4.13
2018-08-16T19:19:57.389Z,3.70
2018-08-16T19:22:32.505Z,4.13
2018-08-16T19:25:07.512Z,3.50
2018-08-16T19:27:41.770Z,4.10
2018-08-16T19:30:16.564Z,4.97
2018-08-16T19:32:51.152Z,4.63
2018-08-16T19:35:25.900Z,5.00
2018-08-16T19:38:00.564Z,4.10
2018-08-16T19:40:35.118Z,4.80
2018-08-16T19:43:10.252Z,4.40
2018-08-16T19:45:44.589Z,3.93
2018-08-16T19:48:19.830Z,4.17
2018-08-16T19:50:54.140Z,3.73
2018-08-16T19:53:28.972Z,4.30
2018-08-16T19:56:03.981Z,4.60
2018-08-16T19:58:38.452Z,5.00
2018-08-16T20:01:13.579Z,4.13
2018-08-16T20:03:48.090Z,4.30
2018-08-16T20:06:22.865Z,4.43
2018-08-16T20:08:57.592Z,5.47
2018-08-16T20:11:32.286Z,4.37
2018-08-16T20:14:07.313Z,4.57
2018-08-16T20:16:41.659Z,6.07
2018-08-16T20:19:16.455Z,5.90
2018-08-16T20:21:51.253Z,4.83
2018-08-16T20:24:25.980Z,5.13
2018-08-16T20:27:00.786Z,5.40
2018-08-16T20:29:35.435Z,6.53
2018-08-16T20:32:10.472Z,5.50
2018-08-16T20:34:45.300Z,7.17
2018-08-16T20:37:19.903Z,8.10
2018-08-16T20:39:54.293Z,8.63
2018-08-16T20:42:29.038Z,7.47
2018-08-16T20:45:03.980Z,7.50
2018-08-16T20:47:38.461Z,7.97
2018-08-16T20:50:13.208Z,6.20
2018-08-16T20:52:47.936Z,6.30
2018-08-16T20:55:22.593Z,6.10
2018-08-16T20:57:57.338Z,7.10
2018-08-16T21:00:32.023Z,8.40
2018-08-16T21:03:06.719Z,7.23
2018-08-16T21:05:41.432Z,6.90
2018-08-16T21:08:16.131Z,5.70
2018-08-16T21:10:50.922Z,6.20
2018-08-16T21:13:25.792Z,6.70
2018-08-16T21:16:00.625Z,6.00
2018-08-16T21:18:35.640Z,4.70
2018-08-16T21:21:10.914Z,6.10
2018-08-16T21:23:45.873Z,5.40
2018-08-16T21:26:20.634Z,6.30
2018-08-16T21:28:55.388Z,6.00
2018-08-16T21:31:30.214Z,5.80
2018-08-16T21:34:04.724Z,6.80
2018-08-16T21:36:39.441Z,8.40
2018-08-16T21:39:14.363Z,8.50
2018-08-16T21:41:48.542Z,7.17
2018-08-16T21:44:23.312Z,7.70
2018-08-16T21:46:58.200Z,7.27
2018-08-16T21:49:32.873Z,6.93
2018-08-16T21:52:08.092Z,6.97
2018-08-16T21:54:42.411Z,5.80
2018-08-16T21:57:17.023Z,6.90
2018-08-16T21:59:51.761Z,7.27
2018-08-16T22:02:26.656Z,7.77
2018-08-16T22:05:01.478Z,6.33
2018-08-16T22:08:10.430Z,6.23
2018-08-16T22:10:44.590Z,6.40
2018-08-16T22:13:19.140Z,5.97
2018-08-16T22:15:53.883Z,5.60
2018-08-16T22:18:28.441Z,6.30
2018-08-16T22:21:03.595Z,6.13
2018-08-16T22:23:38.590Z,6.50
2018-08-16T22:26:13.577Z,5.70
2018-08-16T22:28:48.168Z,6.57
2018-08-16T22:31:22.760Z,7.70
2018-08-16T22:33:57.295Z,6.50
2018-08-16T22:36:32.201Z,6.50
2018-08-16T22:39:11.328Z,6.13
2018-08-16T22:41:46.202Z,7.00
2018-08-16T22:44:21.122Z,6.50
2018-08-16T22:46:55.551Z,5.73
2018-08-16T22:49:30.094Z,6.90
2018-08-16T22:52:05.229Z,5.50
2018-08-16T22:54:39.673Z,5.80
2018-08-16T22:57:14.384Z,7.60
2018-08-16T22:59:49.117Z,6.30
2018-08-16T23:02:23.803Z,6.53
2018-08-16T23:04:58.697Z,6.63
2018-08-16T23:07:33.100Z,5.80
2018-08-16T23:10:07.821Z,5.80
2018-08-16T23:12:42.672Z,5.40
2018-08-16T23:15:17.236Z,7.17
2018-08-16T23:17:51.879Z,7.43
2018-08-16T23:20:26.435Z,6.27
2018-08-16T23:23:01.107Z,6.27
2018-08-16T23:25:36.168Z,6.83
2018-08-16T23:28:10.381Z,6.70
2018-08-16T23:30:45.156Z,6.00
2018-08-16T23:33:20.070Z,5.40
2018-08-16T23:35:54.888Z,6.70
2018-08-16T23:38:29.672Z,6.50
2018-08-16T23:41:04.496Z,5.77
2018-08-16T23:43:38.772Z,6.50
2018-08-16T23:46:13.795Z,6.70
2018-08-16T23:48:48.526Z,7.33
2018-08-16T23:51:23.218Z,6.80
2018-08-16T23:53:58.067Z,6.27
2018-08-16T23:56:33.098Z,5.37
2018-08-16T23:59:07.540Z,6.10
